Time;durP1;ratioP1;P1;durP2;ratioP2;P2;SDS_P1;SDS_P2;PMS_P1;PMS_P2;Temp;Humidity;BMP_temperature;BMP_pressure;BME280_temperature;BME280_humidity;BME280_pressure;Samples;Min_cycle;Max_cycle;Signal;HPM_P1;HPM_P2
2023/10/15 00:00:20;;;;;;;6.37;2.47;;;7.00;99.90;;;;;;5036010;28;20286;-42
2023/10/15 00:02:48;;;;;;;4.37;1.90;;;7.00;99.90;;;;;;5054045;28;20165;-42
2023/10/15 00:05:21;;;;;;;6.53;2.43;;;6.90;99.90;;;;;;5053990;28;20178;-43
2023/10/15 00:07:50;;;;;;;3.07;1.70;;;6.90;99.90;;;;;;5054256;28;20176;-44
2023/10/15 00:10:36;;;;;;;4.13;2.03;;;6.80;99.90;;;;;;5036049;28;20204;-43
2023/10/15 00:13:04;;;;;;;4.43;1.80;;;6.80;99.90;;;;;;5052114;28;20176;-41
2023/10/15 00:15:30;;;;;;;5.70;1.93;;;6.80;99.90;;;;;;5036371;28;20191;-42
2023/10/15 00:17:59;;;;;;;4.03;1.40;;;6.80;99.90;;;;;;5053549;28;20208;-42
2023/10/15 00:20:31;;;;;;;3.20;1.73;;;6.70;99.90;;;;;;5035494;28;20208;-40
2023/10/15 00:22:58;;;;;;;5.47;1.73;;;6.70;99.90;;;;;;5036530;28;20184;-43
2023/10/15 00:25:24;;;;;;;4.37;1.97;;;6.60;99.90;;;;;;5053499;28;20180;-42
2023/10/15 00:27:57;;;;;;;6.20;3.10;;;6.60;99.90;;;;;;5053344;28;20599;-45
2023/10/15 00:30:31;;;;;;;7.80;3.87;;;6.60;99.90;;;;;;5053439;28;20290;-43
2023/10/15 00:32:57;;;;;;;6.47;3.87;;;6.60;99.90;;;;;;5035660;28;20591;-43
2023/10/15 00:35:25;;;;;;;8.10;3.80;;;6.60;99.90;;;;;;5053514;28;20207;-41
2023/10/15 00:37:57;;;;;;;11.17;4.03;;;6.50;99.90;;;;;;5035425;28;20631;-43
2023/10/15 00:40:27;;;;;;;7.47;3.60;;;6.50;99.90;;;;;;5053199;28;20243;-43
2023/10/15 00:42:53;;;;;;;10.60;4.97;;;6.50;99.90;;;;;;5053153;28;20171;-45
2023/10/15 00:45:20;;;;;;;8.93;4.87;;;6.40;99.90;;;;;;5053538;28;20176;-43
2023/10/15 00:50:49;;;;;;;8.53;4.70;;;6.50;99.90;;;;;;5009302;28;20561;-42
2023/10/15 00:53:21;;;;;;;8.00;4.87;;;6.40;99.90;;;;;;5053164;28;20184;-41
2023/10/15 00:56:03;;;;;;;11.53;5.00;;;6.40;99.90;;;;;;5053407;28;20533;-43
2023/10/15 01:01:21;;;;;;;6.60;4.07;;;6.30;99.90;;;;;;5053856;28;20282;-42
2023/10/15 01:04:00;;;;;;;10.33;4.27;;;6.30;99.90;;;;;;5053404;28;20171;-42
2023/10/15 01:06:32;;;;;;;10.63;5.43;;;6.40;99.90;;;;;;5035262;28;20188;-44
2023/10/15 01:12:18;;;;;;;12.33;6.83;;;6.40;99.90;;;;;;5035416;28;20227;-44
2023/10/15 01:14:44;;;;;;;14.73;6.60;;;6.30;99.90;;;;;;5035145;28;20260;-42
2023/10/15 01:17:10;;;;;;;7.97;5.03;;;6.40;99.90;;;;;;5035100;28;20644;-45
2023/10/15 01:19:36;;;;;;;9.10;4.17;;;6.30;99.90;;;;;;5053094;28;20655;-42
2023/10/15 01:22:17;;;;;;;6.73;3.77;;;6.40;99.90;;;;;;5052998;28;20190;-44
2023/10/15 01:24:43;;;;;;;10.27;3.47;;;6.30;99.90;;;;;;5035023;28;20262;-43
2023/10/15 01:27:11;;;;;;;6.17;3.03;;;6.40;99.90;;;;;;5052788;28;20664;-44
2023/10/15 01:29:41;;;;;;;5.07;2.53;;;6.40;99.90;;;;;;5052772;28;20286;-42
2023/10/15 01:32:10;;;;;;;5.63;2.70;;;6.40;99.90;;;;;;5034978;28;20644;-43
2023/10/15 01:34:37;;;;;;;9.23;2.50;;;6.40;99.90;;;;;;5052763;28;20187;-45
2023/10/15 01:39:49;;;;;;;6.70;2.90;;;6.30;99.90;;;;;;5052948;28;20195;-45
2023/10/15 01:45:09;;;;;;;5.73;2.87;;;6.30;99.90;;;;;;5055577;28;20536;-44
2023/10/15 01:47:36;;;;;;;7.37;3.40;;;6.40;99.90;;;;;;5040669;28;20164;-46
2023/10/15 01:50:08;;;;;;;6.27;2.97;;;6.30;99.90;;;;;;5056265;28;20192;-44
2023/10/15 01:52:40;;;;;;;8.70;2.57;;;6.30;99.90;;;;;;5038943;28;20214;-46
2023/10/15 01:55:09;;;;;;;5.23;2.40;;;6.30;99.90;;;;;;5057707;28;20192;-47
2023/10/15 01:57:39;;;;;;;5.30;2.23;;;6.30;99.90;;;;;;5038637;28;20626;-49
2023/10/15 02:00:13;;;;;;;4.70;2.53;;;6.30;99.90;;;;;;5059338;28;20200;-48
2023/10/15 02:02:40;;;;;;;9.97;2.90;;;6.30;99.90;;;;;;5041447;28;20168;-48
2023/10/15 02:05:25;;;;;;;9.80;3.20;;;6.40;99.90;;;;;;5039266;28;20211;-49
2023/10/15 02:07:50;;;;;;;6.47;3.03;;;6.30;99.90;;;;;;5038758;28;20172;-41
2023/10/15 02:10:16;;;;;;;8.33;4.10;;;6.30;99.90;;;;;;5055820;28;20204;-43
2023/10/15 02:12:43;;;;;;;10.57;3.73;;;6.40;99.90;;;;;;5037971;28;20172;-43
2023/10/15 02:15:22;;;;;;;12.10;3.33;;;6.40;99.90;;;;;;5054854;28;20196;-42
2023/10/15 02:17:52;;;;;;;7.60;3.23;;;6.40;99.90;;;;;;5037750;28;20200;-43
2023/10/15 02:20:30;;;;;;;10.13;3.83;;;6.40;99.90;;;;;;5037746;28;20310;-42
2023/10/15 02:22:57;;;;;;;7.50;2.97;;;6.40;99.90;;;;;;5055669;28;20172;-42
2023/10/15 02:25:27;;;;;;;9.90;3.43;;;6.40;99.90;;;;;;5037675;28;20255;-42
2023/10/15 02:27:52;;;;;;;10.83;3.90;;;6.40;99.90;;;;;;5037611;28;20197;-43
2023/10/15 02:30:18;;;;;;;12.10;4.23;;;6.50;99.90;;;;;;5037606;28;20206;-43
2023/10/15 02:32:45;;;;;;;9.67;4.07;;;6.50;99.90;;;;;;5037682;28;20196;-45
2023/10/15 02:35:13;;;;;;;9.97;3.40;;;6.60;99.90;;;;;;5037563;28;20644;-45
2023/10/15 02:37:40;;;;;;;5.80;2.77;;;6.60;99.90;;;;;;5037959;28;20659;-42
2023/10/15 02:40:16;;;;;;;8.17;3.20;;;6.70;99.90;;;;;;5055424;28;20199;-44
2023/10/15 02:42:52;;;;;;;9.47;2.60;;;6.70;99.90;;;;;;5022425;28;20665;-43
2023/10/15 02:45:21;;;;;;;6.87;2.60;;;6.80;99.90;;;;;;5055508;28;20164;-44
2023/10/15 02:47:54;;;;;;;6.23;2.37;;;6.80;99.90;;;;;;5055508;28;20273;-44
2023/10/15 02:50:26;;;;;;;9.80;2.90;;;6.90;99.90;;;;;;5037194;28;20682;-43
2023/10/15 02:52:54;;;;;;;7.17;2.80;;;6.90;99.90;;;;;;5037223;28;20256;-45
2023/10/15 02:55:26;;;;;;;5.97;2.60;;;6.90;99.90;;;;;;5055041;28;20297;-43
2023/10/15 02:58:00;;;;;;;5.17;2.17;;;7.00;99.90;;;;;;5037018;28;20231;-45
2023/10/15 03:00:29;;;;;;;10.90;2.97;;;7.00;99.90;;;;;;5037101;28;20266;-43
2023/10/15 03:03:07;;;;;;;8.17;2.70;;;7.00;99.90;;;;;;5037126;28;20184;-41
2023/10/15 03:05:38;;;;;;;6.70;2.60;;;7.10;99.90;;;;;;5037020;28;20171;-44
2023/10/15 03:08:05;;;;;;;8.40;2.17;;;7.10;99.90;;;;;;5037085;28;20187;-44
2023/10/15 03:10:45;;;;;;;7.83;2.67;;;7.10;99.90;;;;;;5036796;28;20215;-44
2023/10/15 03:13:14;;;;;;;11.57;2.40;;;7.20;99.90;;;;;;5036784;28;20195;-41
2023/10/15 03:15:49;;;;;;;6.57;2.13;;;7.20;99.90;;;;;;5036973;28;20590;-45
2023/10/15 03:18:24;;;;;;;7.47;2.07;;;7.20;99.90;;;;;;5038485;28;20190;-43
2023/10/15 03:23:44;;;;;;;4.37;1.73;;;7.20;99.90;;;;;;5055051;28;20180;-45
2023/10/15 03:26:17;;;;;;;5.87;2.33;;;7.10;99.90;;;;;;5035327;28;20189;-44
2023/10/15 03:28:59;;;;;;;6.90;2.50;;;7.10;99.90;;;;;;5053502;28;20180;-44
2023/10/15 03:31:27;;;;;;;7.43;2.27;;;7.10;99.90;;;;;;5036673;28;20199;-46
2023/10/15 03:34:47;;;;;;;5.90;2.17;;;7.20;99.90;;;;;;5036437;28;20245;-43
2023/10/15 03:36:57;;;;;;;4.43;1.93;;;7.20;99.90;;;;;;5032189;28;20306;-43
2023/10/15 03:44:47;;;;;;;9.40;1.93;;;7.20;99.90;;;;;;5054524;28;20204;-46
2023/10/15 03:50:44;;;;;;;8.23;1.97;;;7.20;99.90;;;;;;5054516;28;20199;-49
2023/10/15 03:53:20;;;;;;;7.37;2.00;;;7.20;99.90;;;;;;5054574;28;20184;-47
2023/10/15 03:55:49;;;;;;;6.37;2.37;;;7.20;99.90;;;;;;5036299;28;20226;-45
2023/10/15 03:58:21;;;;;;;9.90;3.03;;;7.20;99.90;;;;;;5036133;28;20200;-49
2023/10/15 04:00:48;;;;;;;6.40;1.70;;;7.20;99.90;;;;;;5036125;28;20278;-48
2023/10/15 04:03:25;;;;;;;6.53;1.87;;;7.10;99.90;;;;;;5035989;28;20187;-47
2023/10/15 04:05:53;;;;;;;5.03;2.00;;;7.10;99.90;;;;;;5036124;28;20183;-47
2023/10/15 04:08:19;;;;;;;6.43;2.00;;;7.10;99.90;;;;;;5053368;28;20176;-48
2023/10/15 04:10:55;;;;;;;8.80;2.03;;;7.20;99.90;;;;;;5035796;28;20208;-47
2023/10/15 04:13:21;;;;;;;3.13;1.57;;;7.20;99.90;;;;;;5019515;28;20172;-48
2023/10/15 04:15:50;;;;;;;3.73;1.63;;;7.20;99.90;;;;;;5036647;28;20225;-47
2023/10/15 04:18:17;;;;;;;4.80;1.87;;;7.20;99.90;;;;;;5053491;28;20191;-49
2023/10/15 04:20:42;;;;;;;4.20;1.70;;;7.20;99.90;;;;;;5053365;28;20207;-48
2023/10/15 04:23:13;;;;;;;3.90;1.50;;;7.20;99.90;;;;;;5053557;28;20168;-49
2023/10/15 04:25:39;;;;;;;3.03;1.37;;;7.30;99.90;;;;;;5036120;28;20229;-47
2023/10/15 04:28:12;;;;;;;3.60;1.67;;;7.30;99.90;;;;;;5053817;28;20180;-48
2023/10/15 04:30:39;;;;;;;3.20;1.57;;;7.30;99.90;;;;;;5053680;28;20200;-47
2023/10/15 04:33:13;;;;;;;6.10;2.03;;;7.30;99.90;;;;;;5035607;28;20180;-48
2023/10/15 04:35:42;;;;;;;3.80;1.63;;;7.30;99.90;;;;;;5053484;28;20570;-48
2023/10/15 04:38:08;;;;;;;2.23;1.40;;;7.30;99.90;;;;;;5019381;28;20737;-49
2023/10/15 04:43:25;;;;;;;3.27;1.47;;;7.20;99.90;;;;;;5053288;28;20263;-47
2023/10/15 04:45:58;;;;;;;4.73;1.40;;;7.20;99.90;;;;;;5035981;28;20209;-46
2023/10/15 04:48:32;;;;;;;4.73;2.00;;;7.10;99.90;;;;;;5035321;28;20192;-47
2023/10/15 04:51:04;;;;;;;3.77;1.20;;;7.10;99.90;;;;;;5035223;28;20295;-48
2023/10/15 04:53:31;;;;;;;4.53;1.73;;;7.10;99.90;;;;;;5053146;28;20169;-47
2023/10/15 04:55:57;;;;;;;2.83;1.30;;;7.10;99.90;;;;;;5053056;28;20183;-48
2023/10/15 04:58:29;;;;;;;6.33;1.60;;;7.10;99.90;;;;;;5035290;28;20378;-48
2023/10/15 05:00:58;;;;;;;5.67;1.90;;;7.10;99.90;;;;;;5036484;28;20576;-47
2023/10/15 05:03:24;;;;;;;3.07;1.20;;;7.10;99.90;;;;;;5036754;28;20207;-48
2023/10/15 05:05:51;;;;;;;5.67;1.40;;;7.10;99.90;;;;;;5036061;28;20187;-48
2023/10/15 05:08:23;;;;;;;3.87;1.40;;;7.20;99.90;;;;;;5035798;28;20188;-47
2023/10/15 05:10:50;;;;;;;5.97;1.30;;;7.20;99.90;;;;;;5035179;28;20207;-48
2023/10/15 05:13:17;;;;;;;4.70;1.50;;;7.20;99.90;;;;;;5035089;28;20180;-48
2023/10/15 05:15:51;;;;;;;2.53;1.40;;;7.20;99.90;;;;;;5035119;28;20187;-49
2023/10/15 05:18:20;;;;;;;4.67;1.33;;;7.20;99.90;;;;;;5035109;28;20208;-48
2023/10/15 05:20:50;;;;;;;5.63;1.80;;;7.20;99.90;;;;;;5038807;28;20278;-47
2023/10/15 05:23:17;;;;;;;5.83;1.53;;;7.30;99.90;;;;;;5038914;28;20180;-46
2023/10/15 05:25:43;;;;;;;2.73;1.30;;;7.30;99.90;;;;;;5038780;28;20222;-43
2023/10/15 05:28:14;;;;;;;4.20;1.97;;;7.30;99.90;;;;;;5038790;28;20187;-44
2023/10/15 05:30:45;;;;;;;3.47;1.77;;;7.30;99.90;;;;;;5056540;28;20204;-46
2023/10/15 05:33:12;;;;;;;5.17;1.80;;;7.20;99.90;;;;;;5038753;28;20274;-43
2023/10/15 05:35:40;;;;;;;2.47;1.60;;;7.20;99.90;;;;;;5038483;28;20192;-43
2023/10/15 05:38:09;;;;;;;4.10;2.10;;;7.20;99.90;;;;;;5037932;28;20244;-45
2023/10/15 05:43:13;;;;;;;3.73;2.03;;;7.20;99.90;;;;;;5057944;28;20216;-89
2023/10/15 05:45:39;;;;;;;5.67;2.20;;;7.20;99.90;;;;;;5042079;28;20187;-89
2023/10/15 05:48:05;;;;;;;7.80;2.60;;;8.30;99.90;;;;;;5043997;28;20230;-85
2023/10/15 05:50:30;;;;;;;4.33;2.63;;;7.20;99.90;;;;;;5044662;28;20180;-86
2023/10/15 05:52:56;;;;;;;7.77;3.40;;;9.10;99.90;;;;;;5043838;28;20600;-90
2023/10/15 05:55:22;;;;;;;7.10;3.53;;;7.40;99.90;;;;;;5043678;28;20183;-85
2023/10/15 05:57:48;;;;;;;6.47;3.30;;;7.70;99.90;;;;;;5043264;28;20232;-85
2023/10/15 06:00:26;;;;;;;4.93;2.73;;;7.20;99.90;;;;;;5043009;28;20199;-88
2023/10/15 06:02:52;;;;;;;6.13;2.73;;;7.20;99.90;;;;;;5043300;28;20279;-88
2023/10/15 06:05:17;;;;;;;3.90;2.33;;;9.30;99.90;;;;;;5042408;28;20172;-91
2023/10/15 06:07:46;;;;;;;4.90;2.43;;;8.60;99.90;;;;;;5042403;28;20601;-89
2023/10/15 06:10:12;;;;;;;2.90;2.40;;;9.30;99.90;;;;;;5042798;28;20231;-86
2023/10/15 06:12:41;;;;;;;3.50;2.60;;;8.50;99.90;;;;;;5043187;28;20187;-89
2023/10/15 06:15:09;;;;;;;6.53;2.70;;;7.30;99.90;;;;;;5042555;28;20184;-85
2023/10/15 06:17:35;;;;;;;5.73;2.90;;;7.20;99.90;;;;;;5043177;28;20265;-87
2023/10/15 06:20:12;;;;;;;6.43;3.33;;;8.50;99.90;;;;;;5042775;28;20246;-84
2023/10/15 06:22:48;;;;;;;4.73;2.60;;;8.60;99.90;;;;;;5060115;28;20153;-85
2023/10/15 06:25:18;;;;;;;4.07;2.73;;;8.20;99.90;;;;;;5042599;28;20313;-90
2023/10/15 06:27:43;;;;;;;4.70;2.73;;;9.10;99.90;;;;;;5042358;28;20636;-86
2023/10/15 06:30:16;;;;;;;3.00;2.70;;;7.10;99.90;;;;;;5041459;28;20211;-87
2023/10/15 06:32:47;;;;;;;5.80;3.03;;;7.10;99.90;;;;;;5042048;28;20246;-89
2023/10/15 06:35:18;;;;;;;5.33;2.60;;;7.10;99.90;;;;;;5041387;28;20195;-89
2023/10/15 06:37:48;;;;;;;3.73;2.63;;;7.10;99.90;;;;;;5041645;28;20224;-87
2023/10/15 06:40:16;;;;;;;3.23;2.93;;;7.90;99.90;;;;;;5042023;28;20294;-89
2023/10/15 06:42:44;;;;;;;5.67;3.03;;;8.40;99.90;;;;;;5041997;28;20246;-89
2023/10/15 06:45:10;;;;;;;3.20;2.67;;;8.30;99.90;;;;;;5041705;28;20179;-89
2023/10/15 06:47:36;;;;;;;5.43;2.93;;;7.10;99.90;;;;;;5042124;28;20191;-89
2023/10/15 06:50:09;;;;;;;5.83;3.07;;;8.50;99.90;;;;;;5041109;28;20200;-89
2023/10/15 06:52:37;;;;;;;6.70;3.30;;;7.10;99.90;;;;;;5059167;28;20187;-89
2023/10/15 06:55:04;;;;;;;5.93;3.67;;;7.10;99.90;;;;;;5041116;28;20180;-90
2023/10/15 06:57:30;;;;;;;5.07;3.00;;;7.10;99.90;;;;;;5040492;28;20693;-86
2023/10/15 06:59:55;;;;;;;5.00;2.70;;;8.90;99.90;;;;;;5041007;28;20197;-87
2023/10/15 07:02:21;;;;;;;8.63;2.53;;;7.20;99.90;;;;;;5041168;28;20185;-85
2023/10/15 07:04:46;;;;;;;6.00;1.90;;;7.10;99.90;;;;;;5059012;28;20192;-90
2023/10/15 07:07:14;;;;;;;4.50;1.97;;;8.70;99.90;;;;;;5041342;28;20184;-89
2023/10/15 07:09:40;;;;;;;2.57;1.70;;;9.00;99.90;;;;;;5040606;28;20214;-89
2023/10/15 07:12:06;;;;;;;5.50;2.77;;;7.70;99.90;;;;;;5040595;28;20184;-87
2023/10/15 07:14:32;;;;;;;3.77;1.83;;;8.50;99.90;;;;;;5041228;28;20230;-91
2023/10/15 07:16:58;;;;;;;3.23;2.00;;;8.60;99.90;;;;;;5040796;28;20253;-90
2023/10/15 07:19:25;;;;;;;4.47;1.60;;;8.50;99.90;;;;;;5058225;28;20325;-85
2023/10/15 07:21:52;;;;;;;5.60;1.37;;;7.60;99.90;;;;;;5040603;28;20191;-87
2023/10/15 07:24:18;;;;;;;3.50;1.80;;;6.30;99.90;;;;;;5042136;28;20187;-87
2023/10/15 07:26:43;;;;;;;4.83;1.73;;;9.20;99.90;;;;;;5064304;28;20181;-88
2023/10/15 07:29:09;;;;;;;4.53;1.50;;;9.30;99.90;;;;;;5045773;28;20214;-87
2023/10/15 07:31:35;;;;;;;2.40;1.43;;;7.80;99.90;;;;;;5063667;28;20215;-87
2023/10/15 07:34:01;;;;;;;4.17;1.60;;;8.90;99.90;;;;;;5046837;28;20275;-87
2023/10/15 07:36:27;;;;;;;3.10;1.57;;;8.50;99.90;;;;;;5064919;28;20202;-88
2023/10/15 07:38:54;;;;;;;4.50;1.50;;;7.90;99.90;;;;;;5065080;28;20192;-89
2023/10/15 07:41:20;;;;;;;3.27;1.70;;;8.00;99.90;;;;;;5044363;28;20188;-87
2023/10/15 07:43:46;;;;;;;3.10;1.80;;;8.90;99.90;;;;;;5045515;28;20671;-88
2023/10/15 07:46:12;;;;;;;4.80;1.87;;;7.90;99.90;;;;;;5044426;28;20590;-88
2023/10/15 07:48:37;;;;;;;4.77;1.60;;;9.50;99.90;;;;;;5026380;28;20291;-88
2023/10/15 07:51:03;;;;;;;4.27;1.50;;;8.80;99.90;;;;;;5044172;28;20178;-86
2023/10/15 07:53:29;;;;;;;4.33;1.80;;;8.40;99.90;;;;;;5044408;28;20204;-86
2023/10/15 07:55:55;;;;;;;7.53;1.60;;;8.20;99.90;;;;;;5064526;28;20210;-88
2023/10/15 07:58:21;;;;;;;3.77;1.80;;;9.50;99.90;;;;;;5045170;28;20253;-88
2023/10/15 08:00:49;;;;;;;2.80;1.33;;;8.40;99.90;;;;;;5043683;28;20181;-90
2023/10/15 08:03:16;;;;;;;3.40;1.40;;;7.90;99.90;;;;;;5063771;28;20648;-87
2023/10/15 08:05:44;;;;;;;3.37;1.50;;;9.20;99.90;;;;;;5046571;28;20272;-87
2023/10/15 08:08:11;;;;;;;2.70;1.47;;;8.40;99.90;;;;;;5065535;28;20644;-85
2023/10/15 08:10:37;;;;;;;5.53;1.77;;;8.60;99.90;;;;;;5063820;28;20184;-88
2023/10/15 08:13:05;;;;;;;3.30;1.60;;;8.10;99.90;;;;;;5065472;28;20181;-88
2023/10/15 08:15:33;;;;;;;3.83;1.40;;;7.80;99.90;;;;;;5046695;28;20183;-87
2023/10/15 08:18:01;;;;;;;4.33;1.43;;;7.90;99.90;;;;;;5064225;28;20676;-88
2023/10/15 08:20:28;;;;;;;1.80;1.40;;;7.90;99.90;;;;;;5046317;28;20172;-86
2023/10/15 08:22:53;;;;;;;1.97;1.33;;;8.50;99.90;;;;;;5063054;28;20200;-87
2023/10/15 08:25:21;;;;;;;4.53;1.43;;;8.80;99.90;;;;;;5045635;28;20185;-87
2023/10/15 08:27:47;;;;;;;1.40;1.10;;;7.90;99.90;;;;;;5046846;28;20644;-88
2023/10/15 08:30:14;;;;;;;4.93;1.37;;;8.20;99.90;;;;;;5046046;28;20229;-88
2023/10/15 08:32:44;;;;;;;3.40;1.47;;;8.30;99.90;;;;;;5064855;28;20192;-88
2023/10/15 08:35:13;;;;;;;5.77;1.40;;;8.30;99.90;;;;;;5064406;28;20173;-87
2023/10/15 08:37:39;;;;;;;1.13;1.10;;;8.00;99.90;;;;;;5064108;28;20207;-86
2023/10/15 08:40:06;;;;;;;2.43;1.43;;;9.50;99.90;;;;;;5048922;28;20201;-89
2023/10/15 08:42:50;;;;;;;3.00;1.23;;;8.00;99.90;;;;;;5049059;28;20203;-88
2023/10/15 08:45:21;;;;;;;1.57;1.10;;;8.00;99.90;;;;;;5065679;28;20169;-89
2023/10/15 08:47:48;;;;;;;1.97;1.33;;;8.70;99.90;;;;;;5047979;28;20188;-87
2023/10/15 08:50:16;;;;;;;1.57;1.07;;;8.10;99.90;;;;;;5048215;28;20664;-87
2023/10/15 08:52:43;;;;;;;3.00;1.53;;;9.10;99.90;;;;;;5049053;28;20251;-87
2023/10/15 08:55:09;;;;;;;2.00;1.50;;;9.00;99.90;;;;;;5071872;28;20249;-88
2023/10/15 08:57:36;;;;;;;3.93;1.50;;;8.30;99.90;;;;;;5053221;28;20211;-89
2023/10/15 09:00:04;;;;;;;4.93;1.50;;;8.80;99.90;;;;;;5053581;28;20219;-89
2023/10/15 09:02:30;;;;;;;2.97;1.40;;;8.20;99.90;;;;;;5053283;28;20188;-88
2023/10/15 09:04:56;;;;;;;1.80;1.30;;;9.70;99.90;;;;;;5052683;28;20181;-92
2023/10/15 09:07:23;;;;;;;2.90;1.43;;;9.80;99.90;;;;;;5052421;28;20280;-89
2023/10/15 09:09:49;;;;;;;2.30;1.43;;;10.10;99.90;;;;;;5052564;28;20206;-86
2023/10/15 09:12:15;;;;;;;1.57;1.47;;;10.10;99.90;;;;;;5051119;28;20266;-89
2023/10/15 09:14:45;;;;;;;5.97;2.10;;;8.50;99.90;;;;;;5051880;28;20177;-88
2023/10/15 09:17:11;;;;;;;1.63;1.53;;;10.00;99.90;;;;;;5069393;28;20208;-89
2023/10/15 09:19:39;;;;;;;7.40;2.03;;;8.60;99.90;;;;;;5051353;28;20246;-88
2023/10/15 09:22:14;;;;;;;6.73;2.07;;;10.10;99.90;;;;;;5053129;28;20176;-89
2023/10/15 09:24:40;;;;;;;2.80;2.17;;;8.40;99.90;;;;;;5054096;28;20236;-89
2023/10/15 09:27:07;;;;;;;4.83;2.10;;;9.90;99.90;;;;;;5053300;28;20176;-87
2023/10/15 09:29:33;;;;;;;3.97;2.23;;;10.20;99.90;;;;;;5053470;28;20215;-86
2023/10/15 09:32:02;;;;;;;5.77;2.20;;;10.10;99.90;;;;;;5054302;28;20180;-87
2023/10/15 09:34:29;;;;;;;4.67;2.10;;;9.50;99.90;;;;;;5053491;28;20187;-89
2023/10/15 09:36:55;;;;;;;7.00;2.13;;;10.80;99.90;;;;;;5053408;28;20208;-87
2023/10/15 09:39:22;;;;;;;7.77;1.90;;;10.20;99.90;;;;;;5070123;28;20245;-86
2023/10/15 09:41:48;;;;;;;5.53;2.37;;;10.70;99.90;;;;;;5054988;28;20202;-87
2023/10/15 09:44:17;;;;;;;3.03;2.43;;;9.90;99.90;;;;;;5055591;28;20176;-87
2023/10/15 09:46:43;;;;;;;4.77;2.40;;;10.00;99.90;;;;;;5053322;28;20196;-86
2023/10/15 09:49:10;;;;;;;4.67;2.00;;;9.70;99.90;;;;;;5069588;28;20203;-84
2023/10/15 09:51:37;;;;;;;3.83;2.03;;;8.70;99.90;;;;;;5053513;28;20275;-86
2023/10/15 09:54:03;;;;;;;4.03;2.10;;;9.50;99.90;;;;;;5053760;28;20183;-86
2023/10/15 09:56:30;;;;;;;3.70;2.33;;;9.10;99.90;;;;;;5054040;28;20206;-88
2023/10/15 09:58:56;;;;;;;3.67;2.37;;;10.20;99.90;;;;;;5071652;28;20206;-84
2023/10/15 10:01:28;;;;;;;3.30;2.37;;;9.50;99.90;;;;;;5051727;28;20187;-85
2023/10/15 10:04:14;;;;;;;4.97;2.30;;;10.30;99.90;;;;;;5077884;28;20271;-88
2023/10/15 10:06:52;;;;;;;4.20;2.37;;;9.10;99.90;;;;;;5051802;28;20208;-89
2023/10/15 10:09:39;;;;;;;6.17;2.30;;;9.10;99.90;;;;;;5050934;28;20217;-88
2023/10/15 10:12:24;;;;;;;3.67;2.00;;;9.10;99.90;;;;;;5068898;28;20211;-87
2023/10/15 10:15:10;;;;;;;4.07;2.50;;;9.20;99.90;;;;;;5069911;28;20171;-88
2023/10/15 10:17:37;;;;;;;5.47;2.63;;;9.20;99.90;;;;;;5069445;28;20214;-88
2023/10/15 10:20:13;;;;;;;6.60;2.47;;;9.90;99.90;;;;;;5068737;28;20659;-88
2023/10/15 10:22:41;;;;;;;6.50;2.53;;;9.30;99.90;;;;;;5051559;28;20175;-88
2023/10/15 10:25:07;;;;;;;4.87;2.10;;;9.30;99.90;;;;;;5068983;28;20203;-89
2023/10/15 10:27:43;;;;;;;4.77;2.30;;;9.60;99.90;;;;;;5051298;28;20182;-89
2023/10/15 10:30:41;;;;;;;3.97;2.07;;;10.00;99.90;;;;;;5051211;28;20214;-86
2023/10/15 10:33:09;;;;;;;4.60;2.10;;;9.50;99.90;;;;;;5048743;28;20193;-90
2023/10/15 10:35:43;;;;;;;4.93;1.73;;;9.70;99.90;;;;;;5048346;28;20700;-87
2023/10/15 10:38:16;;;;;;;6.10;1.90;;;9.50;99.90;;;;;;5047796;28;20297;-88
2023/10/15 10:40:52;;;;;;;5.50;2.03;;;9.40;99.90;;;;;;5049632;28;20254;-90
2023/10/15 10:43:26;;;;;;;4.27;2.00;;;9.40;99.90;;;;;;5065235;28;20166;-86
2023/10/15 10:45:55;;;;;;;5.57;1.80;;;9.40;99.90;;;;;;5066584;28;20170;-87
2023/10/15 10:48:29;;;;;;;3.73;1.50;;;9.20;99.90;;;;;;5066944;28;20231;-89
2023/10/15 10:51:21;;;;;;;4.60;1.40;;;9.20;99.90;;;;;;5066952;28;20211;-87
2023/10/15 10:53:56;;;;;;;6.00;1.87;;;10.40;99.90;;;;;;5050804;28;20214;-88
2023/10/15 10:56:45;;;;;;;4.20;1.40;;;9.20;99.90;;;;;;5065192;28;20182;-88
2023/10/15 10:59:12;;;;;;;5.00;1.57;;;9.60;99.90;;;;;;5036169;28;20288;-87
2023/10/15 11:01:47;;;;;;;2.20;1.30;;;9.50;99.90;;;;;;5068065;28;20190;-85
2023/10/15 11:04:16;;;;;;;2.50;1.20;;;10.00;99.90;;;;;;5068589;28;20165;-89
2023/10/15 11:06:45;;;;;;;2.40;1.20;;;9.80;99.90;;;;;;5051092;28;20194;-89
2023/10/15 11:09:15;;;;;;;2.80;1.17;;;10.10;99.90;;;;;;5068842;28;20199;-88
2023/10/15 11:11:47;;;;;;;3.80;1.27;;;9.70;99.90;;;;;;5070443;28;20167;-86
2023/10/15 11:14:14;;;;;;;4.73;1.07;;;9.40;99.90;;;;;;5068910;28;20519;-87
2023/10/15 11:16:42;;;;;;;6.00;1.57;;;10.00;99.90;;;;;;5050650;28;20204;-85
2023/10/15 11:19:25;;;;;;;3.80;1.33;;;9.70;99.90;;;;;;5068830;28;20200;-88
2023/10/15 11:21:52;;;;;;;5.80;1.40;;;9.30;99.90;;;;;;5052279;28;20189;-86
2023/10/15 11:24:19;;;;;;;3.30;1.30;;;9.40;99.90;;;;;;5070841;28;20167;-86
2023/10/15 11:26:46;;;;;;;1.40;0.90;;;9.50;99.90;;;;;;5069289;28;20203;-85
2023/10/15 11:29:19;;;;;;;2.83;1.17;;;10.60;99.90;;;;;;5069657;28;20204;-88
2023/10/15 11:31:48;;;;;;;2.73;1.10;;;10.60;99.90;;;;;;5053384;28;20183;-88
2023/10/15 11:34:21;;;;;;;2.10;1.07;;;10.20;99.90;;;;;;5071003;28;20233;-90
2023/10/15 11:36:48;;;;;;;2.80;1.07;;;9.80;99.90;;;;;;5053926;28;20215;-88
2023/10/15 11:39:18;;;;;;;1.73;0.90;;;10.80;99.90;;;;;;5053575;28;20203;-87
2023/10/15 11:41:56;;;;;;;4.67;1.33;;;10.70;99.90;;;;;;5070875;28;20199;-86
2023/10/15 11:44:26;;;;;;;3.03;1.17;;;9.90;99.90;;;;;;5053574;28;20219;-85
2023/10/15 11:46:55;;;;;;;3.10;1.00;;;10.00;99.90;;;;;;5071402;28;20176;-88
2023/10/15 11:49:25;;;;;;;5.57;1.23;;;10.00;99.90;;;;;;5053616;28;20219;-87
2023/10/15 11:52:05;;;;;;;5.80;2.40;;;11.40;99.90;;;;;;5054026;28;20203;-87
2023/10/15 11:54:31;;;;;;;1.10;0.80;;;10.90;99.90;;;;;;5072329;28;20156;-88
2023/10/15 11:57:04;;;;;;;1.97;1.40;;;11.50;99.90;;;;;;5054266;28;20224;-88
2023/10/15 11:59:31;;;;;;;3.60;1.33;;;10.30;99.90;;;;;;5052437;28;20270;-89
2023/10/15 12:02:01;;;;;;;3.27;1.00;;;11.40;99.90;;;;;;5052882;28;20198;-88
2023/10/15 12:04:28;;;;;;;1.60;0.90;;;10.50;99.90;;;;;;5050662;28;20204;-88
2023/10/15 12:06:53;;;;;;;1.70;0.80;;;11.80;99.90;;;;;;5067346;28;20169;-87
2023/10/15 12:09:24;;;;;;;2.63;0.70;;;11.10;99.90;;;;;;5067669;28;20219;-88
2023/10/15 12:11:51;;;;;;;2.73;0.70;;;11.70;99.90;;;;;;5068241;28;20149;-88
2023/10/15 12:14:17;;;;;;;2.17;1.00;;;11.00;99.90;;;;;;5067795;28;20232;-87
2023/10/15 12:16:44;;;;;;;3.63;1.73;;;11.50;99.90;;;;;;5066973;28;20204;-87
2023/10/15 12:19:10;;;;;;;3.97;0.80;;;10.50;99.90;;;;;;5068201;28;20196;-89
2023/10/15 12:21:39;;;;;;;3.13;0.63;;;12.10;99.90;;;;;;5049868;28;20240;-89
2023/10/15 12:24:08;;;;;;;1.43;0.60;;;10.50;99.90;;;;;;5067746;28;20180;-87
2023/10/15 12:26:34;;;;;;;1.27;0.70;;;10.50;99.90;;;;;;5067976;28;20182;-87
2023/10/15 12:29:02;;;;;;;3.90;2.77;;;10.60;99.90;;;;;;5050041;28;20200;-88
2023/10/15 12:31:30;;;;;;;2.17;1.23;;;10.80;99.90;;;;;;5067829;28;20168;-88
2023/10/15 12:33:56;;;;;;;1.20;0.70;;;10.60;99.90;;;;;;5050173;28;20184;-87
2023/10/15 12:36:22;;;;;;;2.00;1.80;;;11.40;99.90;;;;;;5049891;28;20251;-89
2023/10/15 12:38:48;;;;;;;2.40;1.53;;;10.60;99.90;;;;;;5067696;28;20243;-88
2023/10/15 12:41:15;;;;;;;2.93;0.97;;;10.70;99.90;;;;;;5067084;28;20218;-90
2023/10/15 12:43:42;;;;;;;2.67;0.70;;;10.70;99.90;;;;;;5050144;28;20277;-87
2023/10/15 12:46:08;;;;;;;2.63;0.77;;;10.70;92.00;;;;;;5050716;28;20263;-87
2023/10/15 12:48:33;;;;;;;3.57;1.03;;;11.00;97.80;;;;;;5066569;28;20204;-90
2023/10/15 12:50:59;;;;;;;3.30;0.90;;;10.60;95.30;;;;;;5068537;28;20204;-87
2023/10/15 12:53:25;;;;;;;2.57;0.60;;;10.60;99.50;;;;;;5067794;28;20720;-87
2023/10/15 12:55:51;;;;;;;4.60;1.00;;;10.70;98.00;;;;;;5067841;28;20184;-87
2023/10/15 12:58:17;;;;;;;1.67;0.70;;;11.50;99.90;;;;;;5067034;28;20646;-87
2023/10/15 13:00:43;;;;;;;3.60;0.80;;;10.60;96.90;;;;;;5049521;28;20188;-89
2023/10/15 13:03:10;;;;;;;3.13;1.13;;;11.00;99.90;;;;;;5049103;28;20191;-87
2023/10/15 13:05:36;;;;;;;3.53;0.93;;;11.60;99.90;;;;;;5066096;28;20173;-87
2023/10/15 13:08:03;;;;;;;4.03;1.00;;;10.70;99.90;;;;;;5066395;28;20226;-88
2023/10/15 13:10:29;;;;;;;2.93;0.60;;;10.90;99.90;;;;;;5047680;28;20180;-87
2023/10/15 13:12:54;;;;;;;1.43;0.70;;;12.20;99.90;;;;;;5065701;28;20259;-88
2023/10/15 13:15:22;;;;;;;1.90;0.77;;;11.00;98.60;;;;;;5066385;28;20176;-88
2023/10/15 13:17:54;;;;;;;4.53;1.00;;;11.20;98.80;;;;;;5049422;28;20578;-89
2023/10/15 13:20:21;;;;;;;4.43;0.60;;;11.70;76.00;;;;;;5047601;28;20224;-86
2023/10/15 13:22:48;;;;;;;3.23;1.03;;;11.20;71.90;;;;;;5063890;28;20206;-89
2023/10/15 13:25:14;;;;;;;2.17;0.73;;;11.00;79.70;;;;;;5064315;28;20164;-88
2023/10/15 13:27:40;;;;;;;0.67;0.50;;;11.00;78.00;;;;;;5064707;28;20257;-87
2023/10/15 13:30:07;;;;;;;3.30;0.63;;;11.20;95.90;;;;;;5065292;28;20199;-87
2023/10/15 13:32:33;;;;;;;1.90;0.60;;;11.30;77.80;;;;;;5046458;28;20183;-87
2023/10/15 13:34:58;;;;;;;1.13;0.50;;;11.30;90.70;;;;;;5064165;28;20188;-87
2023/10/15 13:37:24;;;;;;;7.90;2.17;;;11.30;71.40;;;;;;5063255;28;20215;-89